createdAt,value
2023-02-24T00:00:47.034Z,88.89
2023-02-24T00:01:45.154Z,88.89
2023-02-24T00:02:45.549Z,88.89
2023-02-24T00:03:45.908Z,88.89
2023-02-24T00:04:46.047Z,88.89
2023-02-24T00:05:46.305Z,88.99
2023-02-24T00:06:46.532Z,88.89
2023-02-24T00:07:46.911Z,88.78
2023-02-24T00:08:47.164Z,88.78
2023-02-24T00:09:47.408Z,88.78
2023-02-24T00:10:47.630Z,88.89
2023-02-24T00:11:47.885Z,88.89
2023-02-24T00:12:48.166Z,88.78
2023-02-24T00:13:48.421Z,88.78
2023-02-24T00:14:48.638Z,88.68
2023-02-24T00:15:48.912Z,88.57
2023-02-24T00:16:49.259Z,88.37
2023-02-24T00:17:49.476Z,88.37
2023-02-24T00:18:49.723Z,88.47
2023-02-24T00:19:49.987Z,88.57
2023-02-24T00:20:50.243Z,88.57
2023-02-24T00:21:50.494Z,88.68
2023-02-24T00:22:50.705Z,88.68
2023-02-24T00:23:51.097Z,88.57
2023-02-24T00:24:51.332Z,88.47
2023-02-24T00:25:51.575Z,88.37
2023-02-24T00:26:51.837Z,88.26
2023-02-24T00:27:52.070Z,88.37
2023-02-24T00:28:52.415Z,88.37
2023-02-24T00:29:52.662Z,88.37
2023-02-24T00:30:53.008Z,88.37
2023-02-24T00:31:53.439Z,88.26
2023-02-24T00:32:53.604Z,88.17
2023-02-24T00:33:53.824Z,88.26
2023-02-24T00:34:54.108Z,88.26
2023-02-24T00:35:54.328Z,88.26
2023-02-24T00:36:54.562Z,88.37
2023-02-24T00:37:54.935Z,88.37
2023-02-24T00:38:55.188Z,88.37
2023-02-24T00:39:55.420Z,88.26
2023-02-24T00:40:55.690Z,88.26
2023-02-24T00:41:55.921Z,88.26
2023-02-24T00:42:56.164Z,88.26
2023-02-24T00:43:56.431Z,88.17
2023-02-24T00:44:56.653Z,88.17
2023-02-24T00:45:56.905Z,88.17
2023-02-24T00:46:57.152Z,88.37
2023-02-24T00:47:57.407Z,88.47
2023-02-24T00:48:57.631Z,88.47
2023-02-24T00:49:57.986Z,88.37
2023-02-24T00:50:58.195Z,88.47
2023-02-24T00:51:58.566Z,88.47
2023-02-24T00:52:58.784Z,88.47
2023-02-24T00:53:59.024Z,88.37
2023-02-24T00:54:59.264Z,86.97
2023-02-24T00:55:59.515Z,85.94
2023-02-24T00:56:59.729Z,85.36
2023-02-24T00:58:00.099Z,85.25
2023-02-24T00:59:00.415Z,85.05
2023-02-24T01:00:00.767Z,84.74
2023-02-24T01:01:01.060Z,84.67
2023-02-24T01:02:01.366Z,84.57
2023-02-24T01:03:01.566Z,84.57
2023-02-24T01:04:01.961Z,84.88
2023-02-24T01:05:02.134Z,84.99
2023-02-24T01:06:02.468Z,85.19
2023-02-24T01:07:02.811Z,85.71
2023-02-24T01:08:03.128Z,85.71
2023-02-24T01:09:03.467Z,85.33
2023-02-24T01:10:03.660Z,85.02
2023-02-24T01:11:03.988Z,85.02
2023-02-24T01:12:04.323Z,85.33
2023-02-24T01:13:04.679Z,85.64
2023-02-24T01:14:04.906Z,85.75
2023-02-24T01:15:05.229Z,85.64
2023-02-24T01:16:05.597Z,85.54
2023-02-24T01:17:05.798Z,85.54
2023-02-24T01:18:06.153Z,85.64
2023-02-24T01:19:06.468Z,85.54
2023-02-24T01:20:06.817Z,85.85
2023-02-24T01:21:07.111Z,85.75
2023-02-24T01:22:07.427Z,86.05
2023-02-24T01:23:07.769Z,86.05
2023-02-24T01:24:08.109Z,86.05
2023-02-24T01:25:08.423Z,85.85
2023-02-24T01:26:08.757Z,86.16
2023-02-24T01:27:09.062Z,86.26
2023-02-24T01:28:09.391Z,86.47
2023-02-24T01:29:09.775Z,86.16
2023-02-24T01:30:09.949Z,85.54
2023-02-24T01:31:10.357Z,85.75
2023-02-24T01:32:10.777Z,85.95
2023-02-24T01:33:10.860Z,86.05
2023-02-24T01:34:11.201Z,86.16
2023-02-24T01:35:11.531Z,86.16
2023-02-24T01:36:11.855Z,86.16
2023-02-24T01:37:12.192Z,85.75
2023-02-24T01:38:12.515Z,85.85
2023-02-24T01:39:12.974Z,85.95
2023-02-24T01:40:13.152Z,86.05
2023-02-24T01:41:13.499Z,86.05
2023-02-24T01:42:13.818Z,85.75
2023-02-24T01:43:14.168Z,85.54
2023-02-24T01:44:14.479Z,85.75
2023-02-24T01:45:14.707Z,85.85
2023-02-24T01:46:15.056Z,85.75
2023-02-24T01:47:15.371Z,85.64
2023-02-24T01:48:15.704Z,85.64
2023-02-24T01:49:16.043Z,85.95
2023-02-24T01:50:16.433Z,85.95
2023-02-24T01:51:16.640Z,86.05
2023-02-24T01:52:16.987Z,85.95
2023-02-24T01:53:17.210Z,85.75
2023-02-24T01:54:17.577Z,85.60
2023-02-24T01:55:17.800Z,85.60
2023-02-24T01:56:18.061Z,85.39
2023-02-24T01:57:18.414Z,85.39
2023-02-24T01:58:18.731Z,85.39
2023-02-24T01:59:19.089Z,85.09
2023-02-24T02:00:19.480Z,84.99
2023-02-24T02:01:19.990Z,84.99
2023-02-24T02:02:20.044Z,85.19
2023-02-24T02:03:20.262Z,85.23
2023-02-24T02:04:20.637Z,85.02
2023-02-24T02:05:20.814Z,85.13
2023-02-24T02:06:21.159Z,85.23
2023-02-24T02:07:21.378Z,85.23
2023-02-24T02:08:21.743Z,85.13
2023-02-24T02:09:21.994Z,85.02
2023-02-24T02:10:22.214Z,84.51
2023-02-24T02:11:23.208Z,83.48
2023-02-24T02:12:22.839Z,83.06
2023-02-24T02:13:23.126Z,83.10
2023-02-24T02:14:23.487Z,83.00
2023-02-24T02:15:23.657Z,82.59
2023-02-24T02:16:23.924Z,82.28
2023-02-24T02:17:24.147Z,81.86
2023-02-24T02:18:24.478Z,81.04
2023-02-24T02:19:24.804Z,81.38
2023-02-24T02:20:25.141Z,81.28
2023-02-24T02:21:25.465Z,81.49
2023-02-24T02:22:25.804Z,81.49
2023-02-24T02:23:26.174Z,81.28
2023-02-24T02:24:26.374Z,81.38
2023-02-24T02:25:26.727Z,80.80
2023-02-24T02:26:27.130Z,81.01
2023-02-24T02:27:27.323Z,81.01
2023-02-24T02:28:27.668Z,81.11
2023-02-24T02:29:28.010Z,80.80
2023-02-24T02:30:28.348Z,80.49
2023-02-24T02:31:28.805Z,80.29
2023-02-24T02:32:29.040Z,80.29
2023-02-24T02:33:29.298Z,80.22
2023-02-24T02:34:29.664Z,80.32
2023-02-24T02:35:29.868Z,80.32
2023-02-24T02:36:30.270Z,80.32
2023-02-24T02:37:30.508Z,80.22
2023-02-24T02:38:30.753Z,80.11
2023-02-24T02:39:31.008Z,80.01
2023-02-24T02:40:31.301Z,79.43
2023-02-24T02:41:31.619Z,79.53
2023-02-24T02:42:31.940Z,79.02
2023-02-24T02:43:32.286Z,79.12
2023-02-24T02:44:32.502Z,78.85
2023-02-24T02:45:32.861Z,79.16
2023-02-24T02:46:33.098Z,79.26
2023-02-24T02:47:33.429Z,78.85
2023-02-24T02:48:33.735Z,78.74
2023-02-24T02:49:34.111Z,78.85
2023-02-24T02:50:34.367Z,78.74
2023-02-24T02:51:34.547Z,78.22
2023-02-24T02:52:34.861Z,77.81
2023-02-24T02:53:35.190Z,77.74
2023-02-24T02:54:35.519Z,77.64
2023-02-24T02:55:35.866Z,77.74
2023-02-24T02:56:36.200Z,78.26
2023-02-24T02:57:36.413Z,78.26
2023-02-24T02:58:36.731Z,78.36
2023-02-24T02:59:37.080Z,78.05
2023-02-24T03:00:37.309Z,77.74
2023-02-24T03:01:37.519Z,78.05
2023-02-24T03:02:37.867Z,78.57
2023-02-24T03:03:38.206Z,78.47
2023-02-24T03:04:38.578Z,78.36
2023-02-24T03:05:38.830Z,78.36
2023-02-24T03:06:39.158Z,78.67
2023-02-24T03:07:39.503Z,78.67
2023-02-24T03:08:39.815Z,78.47
2023-02-24T03:09:40.186Z,78.67
2023-02-24T03:10:40.415Z,78.36
2023-02-24T03:11:40.758Z,77.84
2023-02-24T03:12:41.187Z,77.95
2023-02-24T03:13:41.398Z,78.05
2023-02-24T03:14:41.646Z,77.78
2023-02-24T03:15:41.897Z,77.98
2023-02-24T03:16:42.155Z,77.88
2023-02-24T03:17:42.361Z,77.67
2023-02-24T03:18:42.699Z,77.26
2023-02-24T03:19:43.030Z,77.26
2023-02-24T03:20:43.382Z,77.36
2023-02-24T03:21:43.590Z,77.26
2023-02-24T03:22:43.916Z,76.95
2023-02-24T03:23:44.249Z,77.05
2023-02-24T03:24:44.585Z,77.15
2023-02-24T03:25:44.938Z,77.15
2023-02-24T03:26:45.156Z,76.84
2023-02-24T03:27:45.503Z,76.23
2023-02-24T03:28:45.791Z,75.81
2023-02-24T03:29:46.112Z,75.71
2023-02-24T03:30:46.514Z,75.81
2023-02-24T03:31:46.845Z,76.12
2023-02-24T03:32:47.025Z,76.32
2023-02-24T03:33:47.245Z,76.64
2023-02-24T03:34:47.637Z,76.64
2023-02-24T03:35:47.856Z,76.32
2023-02-24T03:36:48.231Z,76.32
2023-02-24T03:37:48.448Z,76.32
2023-02-24T03:38:48.764Z,76.23
2023-02-24T03:39:49.153Z,76.02
2023-02-24T03:40:49.353Z,76.32
2023-02-24T03:41:49.666Z,76.74
2023-02-24T03:42:49.977Z,76.64
2023-02-24T03:43:50.314Z,76.53
2023-02-24T03:44:50.574Z,76.32
2023-02-24T03:45:50.835Z,76.53
2023-02-24T03:46:51.058Z,76.53
2023-02-24T03:47:51.386Z,76.40
2023-02-24T03:48:51.738Z,76.40
2023-02-24T03:49:51.959Z,76.50
2023-02-24T03:50:52.205Z,76.40
2023-02-24T03:51:52.526Z,76.61
2023-02-24T03:52:52.848Z,76.61
2023-02-24T03:53:53.192Z,76.81
2023-02-24T03:54:53.546Z,76.61
2023-02-24T03:55:53.877Z,76.40
2023-02-24T03:56:54.086Z,76.40
2023-02-24T03:57:54.298Z,76.71
2023-02-24T03:58:54.647Z,76.40
2023-02-24T03:59:54.901Z,76.40
2023-02-24T04:00:55.117Z,76.40
2023-02-24T04:01:55.467Z,76.50
2023-02-24T04:02:55.808Z,76.71
2023-02-24T04:03:56.118Z,76.71
2023-02-24T04:04:56.478Z,76.50
2023-02-24T04:05:56.690Z,76.09
2023-02-24T04:06:57.004Z,75.98
2023-02-24T04:07:57.308Z,75.98
2023-02-24T04:08:57.617Z,75.50
2023-02-24T04:09:57.973Z,75.81
2023-02-24T04:10:58.300Z,76.12
2023-02-24T04:11:58.608Z,76.53
2023-02-24T04:12:58.986Z,76.53
2023-02-24T04:13:59.205Z,76.43
2023-02-24T04:14:59.573Z,76.12
2023-02-24T04:15:59.812Z,75.81
2023-02-24T04:17:00.011Z,75.92
2023-02-24T04:18:00.347Z,76.12
2023-02-24T04:19:00.700Z,75.92
2023-02-24T04:20:01.036Z,75.60
2023-02-24T04:21:01.247Z,75.71
2023-02-24T04:22:01.570Z,75.81
2023-02-24T04:23:09.555Z,75.43
2023-02-24T04:24:02.257Z,75.63
2023-02-24T04:25:02.612Z,75.63
2023-02-24T04:26:02.832Z,75.63
2023-02-24T04:27:03.151Z,75.43
2023-02-24T04:28:03.508Z,75.32
2023-02-24T04:29:03.856Z,74.81
2023-02-24T04:30:04.238Z,74.81
2023-02-24T04:31:04.583Z,75.02
2023-02-24T04:32:04.975Z,75.12
2023-02-24T04:33:05.096Z,75.02
2023-02-24T04:34:05.405Z,75.12
2023-02-24T04:35:05.769Z,75.32
2023-02-24T04:36:06.004Z,75.43
2023-02-24T04:37:06.195Z,75.22
2023-02-24T04:38:06.571Z,74.91
2023-02-24T04:39:06.777Z,74.50
2023-02-24T04:40:07.130Z,74.71
2023-02-24T04:41:07.457Z,74.40
2023-02-24T04:42:07.790Z,74.81
2023-02-24T04:43:08.027Z,74.81
2023-02-24T04:44:08.351Z,74.91
2023-02-24T04:45:08.694Z,74.91
2023-02-24T04:46:09.075Z,74.71
2023-02-24T04:47:09.285Z,74.81
2023-02-24T04:48:09.607Z,75.02
2023-02-24T04:49:09.999Z,74.60
2023-02-24T04:50:10.196Z,74.40
2023-02-24T04:51:10.530Z,74.53
2023-02-24T04:52:10.852Z,74.60
2023-02-24T04:53:11.171Z,74.53
2023-02-24T04:54:11.519Z,74.53
2023-02-24T04:55:11.745Z,74.63
2023-02-24T04:56:12.102Z,74.84
2023-02-24T04:57:12.310Z,74.74
2023-02-24T04:58:12.673Z,74.60
2023-02-24T04:59:12.881Z,74.71
2023-02-24T05:00:13.132Z,74.08
2023-02-24T05:01:13.348Z,73.70
2023-02-24T05:02:13.629Z,73.70
2023-02-24T05:03:13.964Z,73.70
2023-02-24T05:04:14.470Z,74.11
2023-02-24T05:05:14.590Z,74.11
2023-02-24T05:06:14.959Z,74.22
2023-02-24T05:07:15.170Z,74.22
2023-02-24T05:08:15.502Z,73.91
2023-02-24T05:09:15.754Z,73.80
2023-02-24T05:10:16.099Z,73.80
2023-02-24T05:11:16.454Z,73.80
2023-02-24T05:12:16.842Z,73.60
2023-02-24T05:13:17.045Z,73.28
2023-02-24T05:14:17.402Z,73.18
2023-02-24T05:15:17.563Z,72.98
2023-02-24T05:16:18.050Z,73.28
2023-02-24T05:17:18.193Z,73.39
2023-02-24T05:18:18.549Z,73.60
2023-02-24T05:19:18.914Z,74.01
2023-02-24T05:20:19.137Z,74.01
2023-02-24T05:21:19.651Z,74.01
2023-02-24T05:22:19.688Z,74.11
2023-02-24T05:23:19.995Z,74.11
2023-02-24T05:24:20.316Z,74.01
2023-02-24T05:25:20.675Z,74.11
2023-02-24T05:26:20.894Z,74.11
2023-02-24T05:27:21.215Z,74.01
2023-02-24T05:28:21.546Z,73.91
2023-02-24T05:29:21.876Z,74.11
2023-02-24T05:30:22.333Z,74.11
2023-02-24T05:31:22.874Z,74.01
2023-02-24T05:32:23.027Z,74.11
2023-02-24T05:33:23.107Z,74.11
2023-02-24T05:34:23.414Z,74.11
2023-02-24T05:35:23.889Z,74.11
2023-02-24T05:36:24.068Z,74.08
2023-02-24T05:37:24.376Z,74.08
2023-02-24T05:38:24.704Z,74.08
2023-02-24T05:39:25.024Z,73.88
2023-02-24T05:40:25.355Z,74.08
2023-02-24T05:41:25.686Z,74.29
2023-02-24T05:42:26.032Z,74.29
2023-02-24T05:43:26.417Z,74.29
2023-02-24T05:44:26.759Z,74.50
2023-02-24T05:45:26.864Z,74.50
2023-02-24T05:46:27.191Z,74.60
2023-02-24T05:47:27.510Z,74.60
2023-02-24T05:48:27.825Z,74.40
2023-02-24T05:49:28.176Z,74.19
2023-02-24T05:50:28.526Z,74.29
2023-02-24T05:51:28.746Z,74.50
2023-02-24T05:52:29.102Z,74.19
2023-02-24T05:53:29.339Z,74.08
2023-02-24T05:54:29.941Z,74.08
2023-02-24T05:55:29.895Z,74.43
2023-02-24T05:56:30.106Z,74.60
2023-02-24T05:57:30.467Z,74.50
2023-02-24T05:58:30.686Z,74.63
2023-02-24T05:59:31.045Z,74.50
2023-02-24T06:00:31.377Z,74.40
2023-02-24T06:01:31.724Z,74.50
2023-02-24T06:02:31.948Z,74.50
2023-02-24T06:03:32.180Z,74.40
2023-02-24T06:04:32.408Z,74.60
2023-02-24T06:05:32.758Z,74.71
2023-02-24T06:06:32.994Z,74.81
2023-02-24T06:07:33.329Z,74.60
2023-02-24T06:08:33.558Z,74.50
2023-02-24T06:09:33.777Z,74.50
2023-02-24T06:10:34.030Z,74.08
2023-02-24T06:11:34.376Z,74.29
2023-02-24T06:12:34.486Z,74.60
2023-02-24T06:13:34.821Z,74.50
2023-02-24T06:14:35.079Z,74.50
2023-02-24T06:15:35.318Z,74.19
2023-02-24T06:16:35.607Z,73.98
2023-02-24T06:17:35.862Z,73.88
2023-02-24T06:18:36.100Z,73.77
2023-02-24T06:19:36.340Z,73.67
2023-02-24T06:20:36.591Z,73.88
2023-02-24T06:21:36.809Z,74.08
2023-02-24T06:22:37.189Z,74.29
2023-02-24T06:23:37.409Z,74.29
2023-02-24T06:24:37.689Z,74.60
2023-02-24T06:25:37.907Z,74.71
2023-02-24T06:26:38.142Z,74.91
2023-02-24T06:27:38.389Z,74.50
2023-02-24T06:28:38.601Z,74.50
2023-02-24T06:29:38.983Z,74.60
2023-02-24T06:30:39.219Z,74.81
2023-02-24T06:31:39.612Z,74.91
2023-02-24T06:32:39.824Z,74.91
2023-02-24T06:33:40.074Z,74.91
2023-02-24T06:34:40.315Z,75.02
2023-02-24T06:35:40.708Z,75.12
2023-02-24T06:36:40.800Z,75.12
2023-02-24T06:37:41.039Z,74.91
2023-02-24T06:38:41.266Z,74.88
2023-02-24T06:39:41.496Z,74.98
2023-02-24T06:40:41.780Z,75.09
2023-02-24T06:41:42.010Z,75.19
2023-02-24T06:42:42.287Z,75.40
2023-02-24T06:43:42.514Z,75.29
2023-02-24T06:44:42.759Z,75.09
2023-02-24T06:45:43.040Z,74.77
2023-02-24T06:46:43.292Z,74.88
2023-02-24T06:47:43.526Z,75.09
2023-02-24T06:48:43.789Z,75.29
2023-02-24T06:49:44.044Z,75.19
2023-02-24T06:50:44.270Z,75.29
2023-02-24T06:51:44.499Z,75.09
2023-02-24T06:52:44.758Z,74.98
2023-02-24T06:53:44.988Z,74.77
2023-02-24T06:54:45.231Z,74.81
2023-02-24T06:55:45.501Z,75.02
2023-02-24T06:56:45.767Z,75.22
2023-02-24T06:57:45.996Z,75.53
2023-02-24T06:58:46.993Z,75.53
2023-02-24T06:59:46.605Z,75.63
2023-02-24T07:00:46.867Z,75.53
2023-02-24T07:01:47.099Z,75.43
2023-02-24T07:02:47.374Z,75.32
2023-02-24T07:03:47.686Z,75.53
2023-02-24T07:04:49.293Z,75.32
2023-02-24T07:05:48.128Z,75.32
2023-02-24T07:06:48.351Z,75.32
2023-02-24T07:07:48.597Z,75.43
2023-02-24T07:08:48.832Z,75.63
2023-02-24T07:09:49.089Z,75.50
2023-02-24T07:10:49.345Z,75.60
2023-02-24T07:11:49.602Z,75.71
2023-02-24T07:12:49.861Z,75.60
2023-02-24T07:13:50.114Z,75.60
2023-02-24T07:14:50.425Z,75.71
2023-02-24T07:15:50.614Z,75.50
2023-02-24T07:16:50.890Z,75.29
2023-02-24T07:17:51.160Z,75.40
2023-02-24T07:18:51.414Z,75.29
2023-02-24T07:19:51.664Z,75.40
2023-02-24T07:20:51.923Z,75.60
2023-02-24T07:21:52.174Z,75.40
2023-02-24T07:22:52.424Z,75.40
2023-02-24T07:23:52.688Z,75.19
2023-02-24T07:24:52.918Z,75.19
2023-02-24T07:25:53.174Z,75.40
2023-02-24T07:26:53.404Z,75.50
2023-02-24T07:27:53.662Z,75.29
2023-02-24T07:28:53.909Z,75.09
2023-02-24T07:29:54.145Z,75.29
2023-02-24T07:30:54.455Z,75.40
2023-02-24T07:31:54.970Z,75.19
2023-02-24T07:32:55.018Z,75.40
2023-02-24T07:33:55.276Z,75.50
2023-02-24T07:34:55.526Z,75.60
2023-02-24T07:35:55.786Z,75.46
2023-02-24T07:36:56.066Z,75.40
2023-02-24T07:37:56.318Z,75.26
2023-02-24T07:38:56.555Z,75.05
2023-02-24T07:39:56.806Z,75.26
2023-02-24T07:40:57.045Z,74.63
2023-02-24T07:41:57.304Z,74.43
2023-02-24T07:42:57.596Z,74.53
2023-02-24T07:43:57.816Z,74.43
2023-02-24T07:44:58.076Z,74.32
2023-02-24T07:45:58.442Z,74.02
2023-02-24T07:46:58.560Z,74.22
2023-02-24T07:48:01.287Z,74.43
2023-02-24T07:48:59.099Z,74.63
2023-02-24T07:49:59.376Z,74.74
2023-02-24T07:50:59.593Z,74.63
2023-02-24T07:51:59.836Z,74.32
2023-02-24T07:53:00.108Z,74.32
2023-02-24T07:54:00.333Z,74.32
2023-02-24T07:55:00.577Z,74.43
2023-02-24T07:56:00.843Z,74.53
2023-02-24T07:57:01.086Z,74.63
2023-02-24T07:58:01.346Z,74.63
2023-02-24T07:59:01.613Z,74.74
2023-02-24T08:00:01.847Z,74.95
2023-02-24T08:01:02.124Z,74.95
2023-02-24T08:02:02.371Z,74.22
2023-02-24T08:03:02.616Z,73.91
2023-02-24T08:04:02.866Z,74.32
2023-02-24T08:05:03.106Z,74.43
2023-02-24T08:06:03.368Z,74.40
2023-02-24T08:07:03.715Z,74.29
2023-02-24T08:08:03.958Z,74.32
2023-02-24T08:09:04.226Z,74.19
2023-02-24T08:10:04.506Z,73.88
2023-02-24T08:11:04.800Z,73.67
2023-02-24T08:12:05.069Z,73.57
2023-02-24T08:13:05.318Z,73.36
2023-02-24T08:14:05.559Z,73.36
2023-02-24T08:15:05.810Z,73.36
2023-02-24T08:16:06.109Z,73.67
2023-02-24T08:17:06.358Z,73.57
2023-02-24T08:18:06.609Z,73.15
2023-02-24T08:19:06.860Z,72.94
2023-02-24T08:20:08.073Z,72.64
2023-02-24T08:21:07.384Z,72.85
2023-02-24T08:22:07.632Z,72.85
2023-02-24T08:23:07.861Z,72.85
2023-02-24T08:24:08.147Z,72.64
2023-02-24T08:25:08.385Z,72.22
2023-02-24T08:26:08.773Z,72.33
2023-02-24T08:27:08.884Z,72.98
2023-02-24T08:28:09.904Z,73.36
2023-02-24T08:29:09.464Z,73.25
2023-02-24T08:30:09.702Z,72.94
2023-02-24T08:31:10.103Z,72.53
2023-02-24T08:32:10.362Z,72.64
2023-02-24T08:33:10.537Z,72.53
2023-02-24T08:34:10.815Z,72.74
2023-02-24T08:35:11.079Z,72.74
2023-02-24T08:36:11.334Z,72.74
2023-02-24T08:37:11.575Z,73.05
2023-02-24T08:38:11.835Z,72.85
2023-02-24T08:39:12.073Z,72.53
2023-02-24T08:40:12.314Z,72.12
2023-02-24T08:41:12.564Z,72.22
2023-02-24T08:42:12.816Z,72.22
2023-02-24T08:43:13.046Z,71.98
2023-02-24T08:44:13.307Z,71.67
2023-02-24T08:45:13.557Z,71.88
2023-02-24T08:46:14.028Z,71.47
2023-02-24T08:47:14.137Z,71.47
2023-02-24T08:48:14.407Z,71.26
2023-02-24T08:49:14.646Z,71.15
2023-02-24T08:50:14.888Z,71.15
2023-02-24T08:51:15.214Z,71.57
2023-02-24T08:52:15.450Z,71.67
2023-02-24T08:53:15.700Z,71.88
2023-02-24T08:54:15.961Z,71.67
2023-02-24T08:55:16.213Z,71.67
2023-02-24T08:56:16.456Z,71.67
2023-02-24T08:57:16.705Z,71.43
2023-02-24T08:58:16.942Z,71.26
2023-02-24T08:59:17.183Z,71.26
2023-02-24T09:00:17.433Z,71.47
2023-02-24T09:01:17.866Z,70.64
2023-02-24T09:02:18.026Z,70.50
2023-02-24T09:03:18.264Z,70.71
2023-02-24T09:04:18.609Z,70.09
2023-02-24T09:05:18.834Z,69.67
2023-02-24T09:06:19.144Z,69.47
2023-02-24T09:07:19.379Z,68.88
2023-02-24T09:08:19.621Z,69.37
2023-02-24T09:09:19.872Z,69.88
2023-02-24T09:10:20.117Z,69.98
2023-02-24T09:11:20.747Z,69.78
2023-02-24T09:12:20.613Z,69.78
2023-02-24T09:13:20.839Z,69.88
2023-02-24T09:14:29.175Z,70.09
2023-02-24T09:15:22.411Z,70.19
2023-02-24T09:16:21.774Z,69.37
2023-02-24T09:17:22.000Z,69.78
2023-02-24T09:18:22.243Z,69.57
2023-02-24T09:19:22.471Z,69.98
2023-02-24T09:20:22.720Z,69.78
2023-02-24T09:21:23.167Z,69.67
2023-02-24T09:22:23.248Z,69.88
2023-02-24T09:23:23.513Z,69.57
2023-02-24T09:24:23.740Z,69.12
2023-02-24T09:25:24.216Z,68.19
2023-02-24T09:26:24.272Z,68.30
2023-02-24T09:27:24.518Z,68.09
2023-02-24T09:28:25.063Z,67.82
2023-02-24T09:29:25.007Z,67.68
2023-02-24T09:30:25.310Z,68.02
2023-02-24T09:31:26.061Z,68.33
2023-02-24T09:32:26.013Z,68.30
2023-02-24T09:33:26.173Z,67.68
2023-02-24T09:34:26.411Z,67.37
2023-02-24T09:35:26.660Z,67.27
2023-02-24T09:36:26.912Z,67.37
2023-02-24T09:37:27.174Z,67.37
2023-02-24T09:38:27.404Z,67.68
2023-02-24T09:39:27.659Z,67.99
2023-02-24T09:40:27.912Z,67.78
2023-02-24T09:41:28.172Z,66.85
2023-02-24T09:42:28.437Z,66.23
2023-02-24T09:43:28.701Z,66.85
2023-02-24T09:44:29.010Z,67.58
2023-02-24T09:45:29.312Z,67.88
2023-02-24T09:46:29.573Z,67.19
2023-02-24T09:47:29.707Z,66.67
2023-02-24T09:48:29.945Z,66.99
2023-02-24T09:49:30.192Z,67.19
2023-02-24T09:50:59.075Z,67.50
2023-02-24T09:51:31.793Z,67.61
2023-02-24T09:52:31.087Z,67.71
2023-02-24T09:53:31.326Z,67.99
2023-02-24T09:54:31.574Z,68.19
2023-02-24T09:55:31.831Z,67.99
2023-02-24T09:56:32.101Z,67.37
2023-02-24T09:57:32.400Z,67.06
2023-02-24T09:58:43.442Z,67.16
2023-02-24T09:59:33.987Z,67.27
2023-02-24T10:00:33.322Z,67.16
2023-02-24T10:01:33.938Z,67.44
2023-02-24T10:02:33.930Z,67.54
2023-02-24T10:03:34.189Z,66.72
2023-02-24T10:04:34.456Z,66.93
2023-02-24T10:05:34.693Z,67.13
2023-02-24T10:06:34.977Z,67.13
2023-02-24T10:07:35.211Z,66.10
2023-02-24T10:08:35.478Z,65.58
2023-02-24T10:09:35.706Z,65.69
2023-02-24T10:10:35.946Z,65.48
2023-02-24T10:11:36.209Z,66.03
2023-02-24T10:12:36.444Z,66.33
2023-02-24T10:13:36.693Z,66.75
2023-02-24T10:14:42.957Z,66.93
2023-02-24T10:15:38.264Z,66.33
2023-02-24T10:16:37.604Z,66.23
2023-02-24T10:17:37.841Z,66.23
2023-02-24T10:18:38.093Z,66.23
2023-02-24T10:19:38.341Z,66.61
2023-02-24T10:20:38.589Z,66.33
2023-02-24T10:21:38.853Z,66.54
2023-02-24T10:22:39.073Z,66.61
2023-02-24T10:23:39.340Z,66.33
2023-02-24T10:24:39.582Z,66.30
2023-02-24T10:25:39.848Z,66.61
2023-02-24T10:26:41.675Z,66.64
2023-02-24T10:27:41.315Z,66.75
2023-02-24T10:28:40.616Z,66.96
2023-02-24T10:29:40.862Z,66.85
2023-02-24T10:30:41.409Z,67.37
2023-02-24T10:31:41.622Z,67.47
2023-02-24T10:32:41.724Z,67.88
2023-02-24T10:33:41.987Z,67.99
2023-02-24T10:34:42.236Z,68.40
2023-02-24T10:35:42.478Z,68.30
2023-02-24T10:36:42.736Z,68.61
2023-02-24T10:37:42.995Z,69.12
2023-02-24T10:38:43.237Z,69.74
2023-02-24T10:39:43.485Z,69.95
2023-02-24T10:40:43.730Z,70.16
2023-02-24T10:41:43.998Z,70.67
2023-02-24T10:42:44.250Z,71.40
2023-02-24T10:43:44.604Z,71.40
2023-02-24T10:44:46.547Z,71.50
2023-02-24T10:45:45.061Z,71.40
2023-02-24T10:46:45.893Z,71.40
2023-02-24T10:47:45.543Z,71.81
2023-02-24T10:48:45.803Z,72.22
2023-02-24T10:49:46.041Z,72.74
2023-02-24T10:50:55.460Z,72.95
2023-02-24T10:51:47.619Z,72.53
2023-02-24T10:52:46.919Z,72.53
2023-02-24T10:53:47.166Z,73.16
2023-02-24T10:54:47.448Z,73.47
2023-02-24T10:55:47.656Z,73.36
2023-02-24T10:56:47.945Z,73.05
2023-02-24T10:57:58.655Z,72.64
2023-02-24T10:58:49.501Z,73.05
2023-02-24T10:59:48.897Z,73.67
2023-02-24T11:00:49.040Z,74.08
2023-02-24T11:01:49.337Z,73.77
2023-02-24T11:02:49.590Z,73.81
2023-02-24T11:03:49.817Z,74.02
2023-02-24T11:04:50.062Z,74.43
2023-02-24T11:05:50.316Z,74.43
2023-02-24T11:06:50.560Z,74.84
2023-02-24T11:07:50.801Z,74.74
2023-02-24T11:08:51.038Z,74.95
2023-02-24T11:09:51.280Z,75.46
2023-02-24T11:10:51.520Z,75.67
2023-02-24T11:11:51.772Z,75.98
2023-02-24T11:13:00.907Z,76.18
2023-02-24T11:13:53.366Z,76.29
2023-02-24T11:14:52.655Z,76.18
2023-02-24T11:15:52.963Z,76.60
2023-02-24T11:16:53.210Z,76.29
2023-02-24T11:17:53.493Z,76.60
2023-02-24T11:18:53.805Z,76.91
2023-02-24T11:19:54.060Z,76.70
2023-02-24T11:20:54.315Z,76.70
2023-02-24T11:21:54.586Z,77.22
2023-02-24T11:22:54.820Z,77.43
2023-02-24T11:23:55.072Z,77.64
2023-02-24T11:24:55.481Z,77.43
2023-02-24T11:25:55.572Z,77.33
2023-02-24T11:26:55.837Z,77.33
2023-02-24T11:27:56.082Z,77.74
2023-02-24T11:28:56.321Z,77.74
2023-02-24T11:29:56.567Z,77.43
2023-02-24T11:30:56.883Z,77.43
2023-02-24T11:31:57.254Z,77.64
2023-02-24T11:32:57.511Z,78.05
2023-02-24T11:33:57.701Z,77.94
2023-02-24T11:34:57.970Z,77.67
2023-02-24T11:35:58.233Z,77.98
2023-02-24T11:36:58.496Z,77.87
2023-02-24T11:37:58.745Z,78.19
2023-02-24T11:39:15.257Z,78.81
2023-02-24T11:40:00.367Z,78.70
2023-02-24T11:40:59.613Z,78.85
2023-02-24T11:41:59.867Z,78.85
2023-02-24T11:43:00.121Z,79.16
2023-02-24T11:44:00.378Z,79.77
2023-02-24T11:45:00.617Z,79.67
2023-02-24T11:46:00.952Z,79.53
2023-02-24T11:47:01.097Z,79.63
2023-02-24T11:48:01.398Z,79.22
2023-02-24T11:49:01.658Z,79.33
2023-02-24T11:50:04.746Z,79.33
2023-02-24T11:51:02.254Z,79.22
2023-02-24T11:52:02.496Z,79.12
2023-02-24T11:53:02.732Z,79.36
2023-02-24T11:54:03.060Z,79.47
2023-02-24T11:55:03.295Z,79.67
2023-02-24T11:56:03.580Z,79.47
2023-02-24T11:57:03.836Z,79.36
2023-02-24T11:58:04.084Z,79.77
2023-02-24T11:59:04.335Z,79.98
2023-02-24T12:00:04.595Z,79.94
2023-02-24T12:01:04.859Z,80.15
2023-02-24T12:02:05.103Z,79.94
2023-02-24T12:03:05.378Z,79.63
2023-02-24T12:04:05.651Z,79.77
2023-02-24T12:05:05.895Z,80.08
2023-02-24T12:06:06.220Z,80.26
2023-02-24T12:07:06.891Z,80.46
2023-02-24T12:08:06.692Z,80.77
2023-02-24T12:09:06.943Z,80.67
2023-02-24T12:10:20.589Z,80.77
2023-02-24T12:11:08.485Z,80.36
2023-02-24T12:12:07.662Z,79.63
2023-02-24T12:13:07.902Z,80.08
2023-02-24T12:14:08.163Z,80.71
2023-02-24T12:15:08.421Z,80.91
2023-02-24T12:16:08.721Z,81.12
2023-02-24T12:17:08.987Z,81.02
2023-02-24T12:18:09.235Z,80.88
2023-02-24T12:19:09.526Z,80.46
2023-02-24T12:20:09.775Z,80.46
2023-02-24T12:21:10.033Z,80.60
2023-02-24T12:22:10.265Z,80.50
2023-02-24T12:23:10.540Z,81.02
2023-02-24T12:24:10.785Z,80.81
2023-02-24T12:25:11.028Z,80.40
2023-02-24T12:26:11.301Z,80.71
2023-02-24T12:27:11.536Z,80.71
2023-02-24T12:28:11.820Z,81.02
2023-02-24T12:29:12.065Z,81.54
2023-02-24T12:30:12.302Z,81.43
2023-02-24T12:31:12.711Z,81.47
2023-02-24T12:32:12.907Z,81.47
2023-02-24T12:33:13.141Z,81.68
2023-02-24T12:34:13.385Z,81.68
2023-02-24T12:35:13.617Z,82.09
2023-02-24T12:36:13.876Z,81.78
2023-02-24T12:37:14.124Z,81.47
2023-02-24T12:38:14.356Z,81.88
2023-02-24T12:39:14.595Z,81.99
2023-02-24T12:40:14.852Z,82.03
2023-02-24T12:41:15.112Z,82.23
2023-02-24T12:42:15.363Z,82.75
2023-02-24T12:43:15.605Z,82.95
2023-02-24T12:44:15.846Z,83.16
2023-02-24T12:45:16.083Z,83.26
2023-02-24T12:46:16.384Z,83.37
2023-02-24T12:47:16.556Z,83.16
2023-02-24T12:48:16.797Z,83.26
2023-02-24T12:49:17.054Z,83.68
2023-02-24T12:50:17.305Z,84.20
2023-02-24T12:51:17.568Z,84.72
2023-02-24T12:52:17.814Z,84.41
2023-02-24T12:53:18.066Z,84.30
2023-02-24T12:54:18.324Z,84.30
2023-02-24T12:55:18.587Z,84.20
2023-02-24T12:56:18.865Z,84.41